SHT4B EGLL-EGAC
Flight info
| Callsign | SHT4B |
|---|---|
| Flight time | 0h 53m |
| Altitude | 38000 |
| Route | ULTIB T420 TNT UL28 RODOL UM65 TENSO L603 BELOX DCT REMSI DCT NINEB M148 MAGEE |
| Aircraft | A20N/M-SDE2E3FGHIRWXY/LB1 |
Departure
| Time | 2026-04-22 17:25 |
|---|---|
| Airport | London Heathrow Airport (EGLL) |
Arrival
| Time | 2026-04-22 18:19 |
|---|---|
| Airport | George Best Belfast City Airport (EGAC) |
| Time | Latitude | Longitude | Altitude | Speed | Heading |
|---|---|---|---|---|---|
| 2026-04-22 16:45 | 51.47404 | -0.48831 | 60 ft | 0 kts | 179° |
| 2026-04-22 17:10 | 51.47406 | -0.48831 | 87 ft | 2 kts | 179° |
| 2026-04-22 17:10 | 51.47432 | -0.48833 | 88 ft | 4 kts | 174° |
| 2026-04-22 17:10 | 51.47459 | -0.48840 | 88 ft | 3 kts | 162° |
| 2026-04-22 17:11 | 51.47481 | -0.48858 | 86 ft | 4 kts | 120° |
| 2026-04-22 17:11 | 51.47485 | -0.48878 | 89 ft | 1 kts | 88° |
| 2026-04-22 17:11 | 51.47485 | -0.48881 | 89 ft | 0 kts | 88° |
| 2026-04-22 17:15 | 51.47486 | -0.48843 | 86 ft | 5 kts | 89° |
| 2026-04-22 17:15 | 51.47486 | -0.48753 | 88 ft | 11 kts | 89° |
| 2026-04-22 17:15 | 51.47486 | -0.48685 | 87 ft | 6 kts | 90° |
| 2026-04-22 17:16 | 51.47486 | -0.48589 | 89 ft | 11 kts | 90° |
| 2026-04-22 17:16 | 51.47454 | -0.48490 | 87 ft | 12 kts | 159° |
| 2026-04-22 17:16 | 51.47353 | -0.48479 | 86 ft | 17 kts | 181° |
| 2026-04-22 17:16 | 51.47228 | -0.48475 | 86 ft | 19 kts | 179° |
| 2026-04-22 17:17 | 51.47109 | -0.48474 | 86 ft | 14 kts | 180° |
| 2026-04-22 17:17 | 51.47000 | -0.48471 | 88 ft | 17 kts | 179° |
| 2026-04-22 17:17 | 51.46908 | -0.48469 | 88 ft | 0 kts | 187° |
| 2026-04-22 17:17 | 51.46893 | -0.48471 | 88 ft | 4 kts | 184° |
| 2026-04-22 17:18 | 51.46874 | -0.48472 | 89 ft | 2 kts | 179° |
| 2026-04-22 17:18 | 51.46847 | -0.48471 | 90 ft | 6 kts | 179° |
| 2026-04-22 17:18 | 51.46834 | -0.48470 | 90 ft | 2 kts | 179° |
| 2026-04-22 17:18 | 51.46821 | -0.48470 | 88 ft | 2 kts | 179° |
| 2026-04-22 17:19 | 51.46808 | -0.48470 | 88 ft | 3 kts | 179° |
| 2026-04-22 17:19 | 51.46709 | -0.48468 | 87 ft | 11 kts | 181° |
| 2026-04-22 17:20 | 51.46591 | -0.48470 | 87 ft | 1 kts | 180° |
| 2026-04-22 17:20 | 51.46587 | -0.48470 | 87 ft | 0 kts | 180° |
| 2026-04-22 17:23 | 51.46586 | -0.48470 | 87 ft | 1 kts | 180° |
| 2026-04-22 17:24 | 51.46564 | -0.48470 | 90 ft | 6 kts | 180° |
| 2026-04-22 17:24 | 51.46499 | -0.48448 | 90 ft | 11 kts | 144° |
| 2026-04-22 17:24 | 51.46481 | -0.48342 | 88 ft | 5 kts | 90° |
| 2026-04-22 17:24 | 51.46480 | -0.48162 | 87 ft | 44 kts | 90° |
| 2026-04-22 17:25 | 51.46481 | -0.47327 | 86 ft | 103 kts | 89° |
| 2026-04-22 17:25 | 51.46493 | -0.45952 | 121 ft | 142 kts | 87° |
| 2026-04-22 17:25 | 51.46542 | -0.44306 | 653 ft | 144 kts | 88° |
| 2026-04-22 17:25 | 51.46555 | -0.42773 | 1465 ft | 137 kts | 88° |
| 2026-04-22 17:26 | 51.46666 | -0.41234 | 2096 ft | 147 kts | 69° |
| 2026-04-22 17:26 | 51.47228 | -0.39739 | 2625 ft | 168 kts | 54° |
| 2026-04-22 17:26 | 51.48042 | -0.38195 | 3223 ft | 190 kts | 50° |
| 2026-04-22 17:26 | 51.48966 | -0.36551 | 3808 ft | 212 kts | 53° |
| 2026-04-22 17:27 | 51.49961 | -0.34683 | 4606 ft | 224 kts | 54° |
| 2026-04-22 17:27 | 51.50966 | -0.32732 | 5373 ft | 239 kts | 55° |
| 2026-04-22 17:27 | 51.51936 | -0.30430 | 5516 ft | 251 kts | 63° |
| 2026-04-22 17:27 | 51.52642 | -0.27880 | 5659 ft | 249 kts | 73° |
| 2026-04-22 17:28 | 51.53230 | -0.25247 | 5781 ft | 250 kts | 72° |
| 2026-04-22 17:28 | 51.53815 | -0.22623 | 5891 ft | 251 kts | 73° |
| 2026-04-22 17:28 | 51.54421 | -0.19981 | 5985 ft | 253 kts | 67° |
| 2026-04-22 17:28 | 51.55536 | -0.17788 | 5993 ft | 260 kts | 40° |
| 2026-04-22 17:29 | 51.57223 | -0.16658 | 6078 ft | 269 kts | 12° |
| 2026-04-22 17:29 | 51.59098 | -0.16905 | 6087 ft | 278 kts | 345° |
| 2026-04-22 17:29 | 51.60770 | -0.18533 | 6092 ft | 288 kts | 317° |
| 2026-04-22 17:29 | 51.61984 | -0.21107 | 6100 ft | 290 kts | 306° |
| 2026-04-22 17:30 | 51.63202 | -0.23682 | 6105 ft | 288 kts | 314° |
| 2026-04-22 17:30 | 51.64628 | -0.25951 | 6226 ft | 289 kts | 322° |
| 2026-04-22 17:30 | 51.66203 | -0.27904 | 6791 ft | 290 kts | 328° |
| 2026-04-22 17:30 | 51.67903 | -0.29705 | 7896 ft | 289 kts | 330° |
| 2026-04-22 17:31 | 51.69616 | -0.31396 | 8909 ft | 293 kts | 332° |
| 2026-04-22 17:31 | 51.71389 | -0.33099 | 9944 ft | 298 kts | 332° |
| 2026-04-22 17:31 | 51.73167 | -0.34799 | 10834 ft | 305 kts | 332° |
| 2026-04-22 17:31 | 51.75089 | -0.36637 | 11289 ft | 329 kts | 331° |
| 2026-04-22 17:32 | 51.77095 | -0.38564 | 11669 ft | 350 kts | 331° |
| 2026-04-22 17:32 | 51.79216 | -0.40614 | 12335 ft | 357 kts | 331° |
| 2026-04-22 17:32 | 51.81352 | -0.42685 | 13239 ft | 361 kts | 330° |
| 2026-04-22 17:32 | 51.83529 | -0.44798 | 14093 ft | 367 kts | 330° |
| 2026-04-22 17:33 | 51.84989 | -0.46217 | 14595 ft | 370 kts | 330° |
| 2026-04-22 17:33 | 51.87954 | -0.49102 | 15695 ft | 374 kts | 330° |
| 2026-04-22 17:33 | 51.90186 | -0.51276 | 16511 ft | 376 kts | 330° |
| 2026-04-22 17:33 | 51.92438 | -0.53471 | 17319 ft | 379 kts | 330° |
| 2026-04-22 17:34 | 51.94705 | -0.55681 | 18135 ft | 382 kts | 330° |
| 2026-04-22 17:34 | 51.96987 | -0.57909 | 18912 ft | 384 kts | 330° |
| 2026-04-22 17:34 | 51.99231 | -0.60103 | 19791 ft | 379 kts | 330° |
| 2026-04-22 17:34 | 52.01507 | -0.62330 | 20676 ft | 377 kts | 330° |
| 2026-04-22 17:35 | 52.03742 | -0.64520 | 21518 ft | 375 kts | 330° |
| 2026-04-22 17:35 | 52.05985 | -0.66720 | 22216 ft | 378 kts | 329° |
| 2026-04-22 17:35 | 52.08245 | -0.68938 | 22849 ft | 381 kts | 329° |
| 2026-04-22 17:35 | 52.10523 | -0.71180 | 23516 ft | 384 kts | 329° |
| 2026-04-22 17:36 | 52.12811 | -0.73433 | 24154 ft | 386 kts | 329° |
| 2026-04-22 17:36 | 52.15077 | -0.75666 | 24718 ft | 387 kts | 329° |
| 2026-04-22 17:36 | 52.17388 | -0.77946 | 25283 ft | 389 kts | 329° |
| 2026-04-22 17:36 | 52.19704 | -0.80235 | 25802 ft | 391 kts | 328° |
| 2026-04-22 17:37 | 52.21874 | -0.82381 | 26308 ft | 393 kts | 328° |
| 2026-04-22 17:37 | 52.23383 | -0.83875 | 26673 ft | 394 kts | 328° |
| 2026-04-22 17:37 | 52.25721 | -0.86192 | 27177 ft | 395 kts | 328° |
| 2026-04-22 17:37 | 52.28084 | -0.88537 | 27659 ft | 398 kts | 328° |
| 2026-04-22 17:38 | 52.30450 | -0.90889 | 28154 ft | 399 kts | 328° |
| 2026-04-22 17:38 | 52.32828 | -0.93255 | 28665 ft | 401 kts | 327° |
| 2026-04-22 17:38 | 52.35218 | -0.95636 | 29121 ft | 402 kts | 327° |
| 2026-04-22 17:38 | 52.37611 | -0.98024 | 29542 ft | 405 kts | 327° |
| 2026-04-22 17:39 | 52.40017 | -1.00428 | 29989 ft | 406 kts | 327° |
| 2026-04-22 17:39 | 52.42432 | -1.02843 | 30414 ft | 408 kts | 327° |
| 2026-04-22 17:39 | 52.47314 | -1.07737 | 30992 ft | 414 kts | 327° |
| 2026-04-22 17:40 | 52.49776 | -1.10210 | 31312 ft | 416 kts | 327° |
| 2026-04-22 17:40 | 52.52251 | -1.12698 | 31695 ft | 417 kts | 327° |
| 2026-04-22 17:40 | 52.54725 | -1.15189 | 32104 ft | 417 kts | 327° |
| 2026-04-22 17:40 | 52.57201 | -1.17685 | 32497 ft | 417 kts | 327° |
| 2026-04-22 17:41 | 52.59670 | -1.20176 | 32908 ft | 417 kts | 327° |
| 2026-04-22 17:41 | 52.62143 | -1.22675 | 33313 ft | 416 kts | 327° |
| 2026-04-22 17:41 | 52.64612 | -1.25173 | 33700 ft | 416 kts | 327° |
| 2026-04-22 17:41 | 52.67074 | -1.27667 | 34085 ft | 416 kts | 327° |
| 2026-04-22 17:42 | 52.69535 | -1.30165 | 34416 ft | 416 kts | 327° |
| 2026-04-22 17:42 | 52.71172 | -1.31828 | 34588 ft | 417 kts | 327° |
| 2026-04-22 17:42 | 52.73643 | -1.34345 | 35004 ft | 419 kts | 327° |
| 2026-04-22 17:42 | 52.76126 | -1.36878 | 35241 ft | 420 kts | 327° |
| 2026-04-22 17:43 | 52.78626 | -1.39432 | 35496 ft | 422 kts | 327° |
| 2026-04-22 17:43 | 52.81118 | -1.41980 | 35739 ft | 423 kts | 327° |
| 2026-04-22 17:43 | 52.83627 | -1.44549 | 35970 ft | 424 kts | 327° |
| 2026-04-22 17:43 | 52.86136 | -1.47122 | 36214 ft | 425 kts | 327° |
| 2026-04-22 17:44 | 52.88652 | -1.49704 | 36469 ft | 425 kts | 327° |
| 2026-04-22 17:44 | 52.91174 | -1.52298 | 36707 ft | 426 kts | 327° |
| 2026-04-22 17:44 | 52.93688 | -1.54886 | 36966 ft | 426 kts | 327° |
| 2026-04-22 17:44 | 52.96208 | -1.57483 | 37190 ft | 427 kts | 327° |
| 2026-04-22 17:45 | 52.98731 | -1.60088 | 37424 ft | 427 kts | 327° |
| 2026-04-22 17:45 | 53.01264 | -1.62705 | 37647 ft | 428 kts | 327° |
| 2026-04-22 17:45 | 53.03755 | -1.65283 | 37884 ft | 428 kts | 327° |
| 2026-04-22 17:45 | 53.06279 | -1.67899 | 38107 ft | 428 kts | 327° |
| 2026-04-22 17:46 | 53.08841 | -1.70561 | 38330 ft | 428 kts | 327° |
| 2026-04-22 17:46 | 53.13878 | -1.75805 | 38374 ft | 430 kts | 327° |
| 2026-04-22 17:47 | 53.18936 | -1.81084 | 38385 ft | 429 kts | 327° |
| 2026-04-22 17:47 | 53.24003 | -1.86388 | 38383 ft | 431 kts | 327° |
| 2026-04-22 17:48 | 53.29190 | -1.91407 | 38391 ft | 430 kts | 330° |
| 2026-04-22 17:48 | 53.34421 | -1.96264 | 38391 ft | 431 kts | 329° |
| 2026-04-22 17:49 | 53.39655 | -2.01208 | 38399 ft | 432 kts | 329° |
| 2026-04-22 17:49 | 53.44880 | -2.06187 | 38397 ft | 432 kts | 329° |
| 2026-04-22 17:50 | 53.50106 | -2.11186 | 38396 ft | 432 kts | 329° |
| 2026-04-22 17:50 | 53.55324 | -2.16250 | 38397 ft | 433 kts | 325° |
| 2026-04-22 17:51 | 53.59712 | -2.23096 | 38392 ft | 431 kts | 307° |
| 2026-04-22 17:51 | 53.62609 | -2.31879 | 38391 ft | 432 kts | 290° |
| 2026-04-22 17:52 | 53.64825 | -2.41298 | 38381 ft | 433 kts | 292° |
| 2026-04-22 17:52 | 53.67129 | -2.50683 | 38379 ft | 432 kts | 292° |
| 2026-04-22 17:53 | 53.69413 | -2.60080 | 38373 ft | 433 kts | 292° |
| 2026-04-22 17:53 | 53.71672 | -2.69473 | 38315 ft | 432 kts | 291° |
| 2026-04-22 17:54 | 53.73921 | -2.78879 | 38375 ft | 432 kts | 291° |
| 2026-04-22 17:54 | 53.76168 | -2.88321 | 38378 ft | 433 kts | 291° |
| 2026-04-22 17:55 | 53.78400 | -2.97744 | 38375 ft | 433 kts | 291° |
| 2026-04-22 17:55 | 53.80633 | -3.07207 | 38374 ft | 432 kts | 291° |
| 2026-04-22 17:56 | 53.82852 | -3.16651 | 38371 ft | 433 kts | 291° |
| 2026-04-22 17:56 | 53.85070 | -3.26136 | 38263 ft | 432 kts | 291° |
| 2026-04-22 17:56 | 53.86176 | -3.30878 | 37835 ft | 430 kts | 290° |
| 2026-04-22 17:57 | 53.87266 | -3.35560 | 37175 ft | 430 kts | 290° |
| 2026-04-22 17:57 | 53.88368 | -3.40310 | 36343 ft | 433 kts | 290° |
| 2026-04-22 17:57 | 53.89459 | -3.45022 | 35476 ft | 436 kts | 290° |
| 2026-04-22 17:57 | 53.90565 | -3.49805 | 34761 ft | 435 kts | 290° |
| 2026-04-22 17:58 | 53.91665 | -3.54568 | 34035 ft | 431 kts | 290° |
| 2026-04-22 17:58 | 53.92759 | -3.59323 | 33017 ft | 434 kts | 289° |
| 2026-04-22 17:58 | 53.93856 | -3.64109 | 31933 ft | 439 kts | 289° |
| 2026-04-22 17:58 | 53.94967 | -3.68967 | 30932 ft | 443 kts | 289° |
| 2026-04-22 17:59 | 53.96077 | -3.73821 | 30380 ft | 436 kts | 289° |
| 2026-04-22 17:59 | 53.97162 | -3.78575 | 29787 ft | 428 kts | 289° |
| 2026-04-22 17:59 | 53.98228 | -3.83263 | 29212 ft | 421 kts | 289° |
| 2026-04-22 17:59 | 53.99273 | -3.87866 | 28652 ft | 415 kts | 289° |
| 2026-04-22 18:00 | 53.99956 | -3.90884 | 28282 ft | 411 kts | 289° |
| 2026-04-22 18:00 | 54.01315 | -3.96899 | 27545 ft | 404 kts | 289° |
| 2026-04-22 18:00 | 54.02314 | -4.01333 | 26999 ft | 399 kts | 289° |
| 2026-04-22 18:00 | 54.03301 | -4.05725 | 26457 ft | 395 kts | 289° |
| 2026-04-22 18:01 | 54.04276 | -4.10068 | 25921 ft | 391 kts | 288° |
| 2026-04-22 18:01 | 54.05239 | -4.14372 | 25367 ft | 388 kts | 288° |
| 2026-04-22 18:01 | 54.06193 | -4.18643 | 24838 ft | 385 kts | 288° |
| 2026-04-22 18:01 | 54.07140 | -4.22889 | 24278 ft | 383 kts | 288° |
| 2026-04-22 18:02 | 54.08080 | -4.27124 | 23736 ft | 381 kts | 289° |
| 2026-04-22 18:02 | 54.09014 | -4.31321 | 23185 ft | 377 kts | 288° |
| 2026-04-22 18:02 | 54.09935 | -4.35475 | 22685 ft | 373 kts | 288° |
| 2026-04-22 18:02 | 54.10846 | -4.39593 | 22131 ft | 370 kts | 288° |
| 2026-04-22 18:03 | 54.11761 | -4.43743 | 21602 ft | 386 kts | 288° |
| 2026-04-22 18:03 | 54.12726 | -4.48131 | 21030 ft | 403 kts | 288° |
| 2026-04-22 18:03 | 54.13719 | -4.52647 | 20446 ft | 408 kts | 288° |
| 2026-04-22 18:03 | 54.14720 | -4.57193 | 19857 ft | 408 kts | 288° |
| 2026-04-22 18:04 | 54.15702 | -4.61666 | 19266 ft | 406 kts | 288° |
| 2026-04-22 18:04 | 54.16697 | -4.66211 | 18652 ft | 402 kts | 288° |
| 2026-04-22 18:04 | 54.17653 | -4.70596 | 18073 ft | 397 kts | 288° |
| 2026-04-22 18:04 | 54.18609 | -4.74988 | 17497 ft | 391 kts | 288° |
| 2026-04-22 18:05 | 54.19549 | -4.79315 | 16931 ft | 386 kts | 288° |
| 2026-04-22 18:05 | 54.20477 | -4.83599 | 16356 ft | 383 kts | 288° |
| 2026-04-22 18:05 | 54.21392 | -4.87833 | 15804 ft | 379 kts | 287° |
| 2026-04-22 18:05 | 54.22300 | -4.92044 | 15249 ft | 376 kts | 287° |
| 2026-04-22 18:06 | 54.23202 | -4.96234 | 14699 ft | 374 kts | 287° |
| 2026-04-22 18:06 | 54.24097 | -5.00394 | 14129 ft | 372 kts | 287° |
| 2026-04-22 18:06 | 54.24981 | -5.04522 | 13570 ft | 368 kts | 287° |
| 2026-04-22 18:06 | 54.25853 | -5.08603 | 13033 ft | 365 kts | 287° |
| 2026-04-22 18:07 | 54.26719 | -5.12665 | 12503 ft | 361 kts | 287° |
| 2026-04-22 18:07 | 54.27576 | -5.16694 | 11963 ft | 359 kts | 287° |
| 2026-04-22 18:07 | 54.28426 | -5.20700 | 11441 ft | 357 kts | 288° |
| 2026-04-22 18:07 | 54.29268 | -5.24675 | 10913 ft | 355 kts | 288° |
| 2026-04-22 18:08 | 54.30101 | -5.28612 | 10632 ft | 345 kts | 288° |
| 2026-04-22 18:08 | 54.30902 | -5.32398 | 10450 ft | 328 kts | 288° |
| 2026-04-22 18:08 | 54.31656 | -5.35965 | 10129 ft | 314 kts | 288° |
| 2026-04-22 18:08 | 54.32395 | -5.39471 | 9636 ft | 310 kts | 288° |
| 2026-04-22 18:09 | 54.33118 | -5.42909 | 9447 ft | 301 kts | 288° |
| 2026-04-22 18:09 | 54.33830 | -5.46303 | 9286 ft | 307 kts | 288° |
| 2026-04-22 18:09 | 54.34549 | -5.49740 | 8973 ft | 309 kts | 288° |
| 2026-04-22 18:09 | 54.35273 | -5.53195 | 8667 ft | 305 kts | 288° |
| 2026-04-22 18:10 | 54.35989 | -5.56621 | 8273 ft | 304 kts | 287° |
| 2026-04-22 18:10 | 54.36701 | -5.60034 | 7877 ft | 303 kts | 287° |
| 2026-04-22 18:10 | 54.37407 | -5.63430 | 7500 ft | 301 kts | 287° |
| 2026-04-22 18:10 | 54.38106 | -5.66799 | 7152 ft | 298 kts | 287° |
| 2026-04-22 18:11 | 54.38796 | -5.70122 | 6790 ft | 296 kts | 287° |
| 2026-04-22 18:11 | 54.39487 | -5.73451 | 6375 ft | 295 kts | 287° |
| 2026-04-22 18:11 | 54.40171 | -5.76759 | 5984 ft | 293 kts | 287° |
| 2026-04-22 18:11 | 54.40842 | -5.80002 | 5617 ft | 291 kts | 287° |
| 2026-04-22 18:12 | 54.41525 | -5.83304 | 5259 ft | 289 kts | 287° |
| 2026-04-22 18:12 | 54.42195 | -5.86561 | 4829 ft | 289 kts | 287° |
| 2026-04-22 18:12 | 54.42636 | -5.88714 | 4517 ft | 290 kts | 287° |
| 2026-04-22 18:12 | 54.43532 | -5.93084 | 3794 ft | 290 kts | 287° |
| 2026-04-22 18:13 | 54.44201 | -5.96355 | 3238 ft | 288 kts | 287° |
| 2026-04-22 18:13 | 54.44851 | -5.99517 | 3023 ft | 274 kts | 288° |
| 2026-04-22 18:13 | 54.45742 | -6.02293 | 2853 ft | 261 kts | 315° |
| 2026-04-22 18:13 | 54.47178 | -6.03952 | 2652 ft | 242 kts | 347° |
| 2026-04-22 18:14 | 54.48717 | -6.04130 | 2528 ft | 208 kts | 22° |
| 2026-04-22 18:14 | 54.49856 | -6.03059 | 2397 ft | 173 kts | 52° |
| 2026-04-22 18:14 | 54.50633 | -6.01658 | 2288 ft | 152 kts | 58° |
| 2026-04-22 18:14 | 54.51311 | -6.00387 | 2217 ft | 137 kts | 57° |
| 2026-04-22 18:15 | 54.51968 | -5.99292 | 1974 ft | 128 kts | 53° |
| 2026-04-22 18:15 | 54.52649 | -5.98276 | 1948 ft | 133 kts | 50° |
| 2026-04-22 18:15 | 54.53377 | -5.97320 | 1889 ft | 133 kts | 47° |
| 2026-04-22 18:15 | 54.54133 | -5.96414 | 1767 ft | 129 kts | 45° |
| 2026-04-22 18:16 | 54.54843 | -5.95570 | 1588 ft | 125 kts | 47° |
| 2026-04-22 18:16 | 54.55552 | -5.94724 | 1419 ft | 121 kts | 44° |
| 2026-04-22 18:16 | 54.56240 | -5.93902 | 1250 ft | 120 kts | 43° |
| 2026-04-22 18:16 | 54.56923 | -5.93088 | 1088 ft | 118 kts | 44° |
| 2026-04-22 18:17 | 54.57599 | -5.92280 | 925 ft | 119 kts | 42° |
| 2026-04-22 18:17 | 54.58284 | -5.91459 | 747 ft | 120 kts | 43° |
| 2026-04-22 18:17 | 54.58968 | -5.90644 | 557 ft | 121 kts | 41° |
| 2026-04-22 18:17 | 54.59657 | -5.89820 | 402 ft | 119 kts | 40° |
| 2026-04-22 18:18 | 54.60319 | -5.89029 | 249 ft | 118 kts | 41° |
| 2026-04-22 18:18 | 54.60996 | -5.88232 | 111 ft | 120 kts | 39° |
| 2026-04-22 18:18 | 54.61663 | -5.87432 | 27 ft | 106 kts | 33° |
| 2026-04-22 18:18 | 54.62135 | -5.86859 | 22 ft | 54 kts | 34° |
| 2026-04-22 18:19 | 54.62284 | -5.86690 | 23 ft | 0 kts | 31° |
| 2026-04-22 18:19 | 54.62301 | -5.86672 | 25 ft | 14 kts | 33° |
| 2026-04-22 18:19 | 54.62397 | -5.86520 | 25 ft | 21 kts | 60° |
| 2026-04-22 18:19 | 54.62467 | -5.86459 | 23 ft | 1 kts | 320° |
| 2026-04-22 18:20 | 54.62455 | -5.86526 | 24 ft | 11 kts | 219° |
| 2026-04-22 18:20 | 54.62365 | -5.86588 | 24 ft | 16 kts | 215° |
| 2026-04-22 18:20 | 54.62255 | -5.86721 | 25 ft | 21 kts | 214° |
| 2026-04-22 18:20 | 54.62123 | -5.86870 | 25 ft | 24 kts | 214° |
| 2026-04-22 18:21 | 54.61976 | -5.87031 | 26 ft | 27 kts | 211° |
| 2026-04-22 18:21 | 54.61847 | -5.87138 | 23 ft | 14 kts | 167° |
| 2026-04-22 18:21 | 54.61766 | -5.87037 | 23 ft | 16 kts | 138° |
| 2026-04-22 18:21 | 54.61690 | -5.87033 | 26 ft | 12 kts | 205° |
| 2026-04-22 18:22 | 54.61616 | -5.87124 | 23 ft | 11 kts | 214° |
| 2026-04-22 18:22 | 54.61563 | -5.87185 | 23 ft | 6 kts | 214° |
| 2026-04-22 18:22 | 54.61521 | -5.87224 | 24 ft | 6 kts | 191° |
| 2026-04-22 18:22 | 54.61509 | -5.87223 | 23 ft | 3 kts | 175° |
| 2026-04-22 18:23 | 54.61478 | -5.87200 | 23 ft | 2 kts | 152° |
| 2026-04-22 18:23 | 54.61471 | -5.87195 | 25 ft | 0 kts | 156° |
| 2026-04-22 18:23 | 54.61464 | -5.87190 | 24 ft | 0 kts | 156° |
| 2026-04-22 18:24 | 54.61462 | -5.87188 | 24 ft | 0 kts | 155° |